createdAt,value
2022-08-27T00:01:22.575Z,100433.69
2022-08-27T00:03:49.213Z,100421.75
2022-08-27T00:06:17.961Z,100429.81
2022-08-27T00:08:46.984Z,100435.38
2022-08-27T00:11:13.904Z,100434.78
2022-08-27T00:13:40.797Z,100429.06
2022-08-27T00:16:10.807Z,100441.47
2022-08-27T00:18:39.029Z,100439.91
2022-08-27T00:21:06.841Z,100441.09
2022-08-27T00:23:33.650Z,100436.41
2022-08-27T00:26:00.266Z,100440.94
2022-08-27T00:28:28.425Z,100446.34
2022-08-27T00:30:57.811Z,100449.59
2022-08-27T00:33:24.910Z,100451.03
2022-08-27T00:35:51.893Z,100449.41
2022-08-27T00:38:20.383Z,100453.78
2022-08-27T00:40:47.475Z,100450.91
2022-08-27T00:43:25.364Z,100443.91
2022-08-27T00:45:55.807Z,100452.16
2022-08-27T00:48:27.634Z,100446.19
2022-08-27T00:50:55.630Z,100455.28
2022-08-27T00:53:29.586Z,100452.63
2022-08-27T00:56:15.636Z,100450.53
2022-08-27T00:58:46.136Z,100452.31
2022-08-27T01:01:17.247Z,100456.88
2022-08-27T01:03:47.908Z,100456.69
2022-08-27T01:06:16.371Z,100460.34
2022-08-27T01:08:57.399Z,100454.38
2022-08-27T01:11:25.149Z,100452.94
2022-08-27T01:13:59.129Z,100460.84
2022-08-27T01:16:32.726Z,100454.19
2022-08-27T01:19:00.867Z,100459.66
2022-08-27T01:21:36.956Z,100456.06
2022-08-27T01:24:21.522Z,100454.78
2022-08-27T01:26:48.656Z,100454.47
2022-08-27T01:29:17.309Z,100459.00
2022-08-27T01:31:43.847Z,100451.13
2022-08-27T01:34:10.496Z,100447.56
2022-08-27T01:36:37.026Z,100452.72
2022-08-27T01:39:03.697Z,100456.38
2022-08-27T01:41:32.029Z,100452.25
2022-08-27T01:43:58.528Z,100460.03
2022-08-27T01:46:27.958Z,100456.13
2022-08-27T01:48:55.580Z,100452.94
2022-08-27T01:51:22.336Z,100450.63
2022-08-27T01:53:48.982Z,100457.81
2022-08-27T01:56:15.649Z,100452.94
2022-08-27T01:58:43.437Z,100456.72
2022-08-27T02:01:14.094Z,100458.91
2022-08-27T02:03:41.218Z,100464.16
2022-08-27T02:06:10.185Z,100459.69
2022-08-27T02:08:37.824Z,100457.31
2022-08-27T02:11:05.254Z,100453.88
2022-08-27T02:13:31.809Z,100458.94
2022-08-27T02:15:58.395Z,100460.28
2022-08-27T02:18:24.972Z,100454.25
2022-08-27T02:20:51.646Z,100454.13
2022-08-27T02:23:18.649Z,100460.19
2022-08-27T02:25:47.254Z,100466.75
2022-08-27T02:28:14.464Z,100474.22
2022-08-27T02:30:41.073Z,100472.94
2022-08-27T02:33:07.647Z,100470.34
2022-08-27T02:35:38.894Z,100473.97
2022-08-27T02:38:05.988Z,100476.84
2022-08-27T02:40:32.720Z,100476.41
2022-08-27T02:42:59.551Z,100490.63
2022-08-27T02:45:26.466Z,100484.31
2022-08-27T02:47:53.961Z,100476.59
2022-08-27T02:50:20.839Z,100476.53
2022-08-27T02:52:53.475Z,100477.63
2022-08-27T02:55:20.807Z,100479.50
2022-08-27T02:57:47.339Z,100476.81
2022-08-27T03:00:17.906Z,100476.69
2022-08-27T03:02:45.169Z,100475.06
2022-08-27T03:05:13.341Z,100473.44
2022-08-27T03:07:40.769Z,100476.81
2022-08-27T03:10:08.750Z,100480.41
2022-08-27T03:12:36.363Z,100485.97
2022-08-27T03:15:08.239Z,100480.03
2022-08-27T03:17:53.748Z,100481.34
2022-08-27T03:20:20.718Z,100476.28
2022-08-27T03:22:47.221Z,100478.28
2022-08-27T03:25:14.427Z,100474.72
2022-08-27T03:27:41.180Z,100471.66
2022-08-27T03:30:15.924Z,100466.69
2022-08-27T03:32:43.404Z,100467.34
2022-08-27T03:35:11.668Z,100472.88
2022-08-27T03:37:38.261Z,100460.63
2022-08-27T03:40:06.931Z,100468.22
2022-08-27T03:42:34.661Z,100469.69
2022-08-27T03:45:01.237Z,100467.09
2022-08-27T03:47:27.749Z,100470.06
2022-08-27T03:49:54.204Z,100474.28
2022-08-27T03:52:20.930Z,100464.38
2022-08-27T03:54:47.419Z,100464.94
2022-08-27T03:57:14.011Z,100468.22
2022-08-27T03:59:40.488Z,100470.25
2022-08-27T04:02:07.305Z,100466.38
2022-08-27T04:04:33.968Z,100467.41
2022-08-27T04:07:00.445Z,100456.13
2022-08-27T04:09:27.145Z,100452.69
2022-08-27T04:11:53.654Z,100455.72
2022-08-27T04:14:27.377Z,100458.19
2022-08-27T04:16:56.351Z,100457.34
2022-08-27T04:19:27.712Z,100462.75
2022-08-27T04:22:02.351Z,100457.19
2022-08-27T04:24:31.395Z,100455.66
2022-08-27T04:26:58.660Z,100463.16
2022-08-27T04:29:25.173Z,100459.97
2022-08-27T04:31:51.738Z,100455.78
2022-08-27T04:34:18.899Z,100464.56
2022-08-27T04:36:46.207Z,100465.38
2022-08-27T04:39:14.636Z,100473.44
2022-08-27T04:41:41.595Z,100471.66
2022-08-27T04:44:10.206Z,100472.63
2022-08-27T04:46:40.201Z,100466.81
2022-08-27T04:49:14.525Z,100474.41
2022-08-27T04:51:42.994Z,100476.00
2022-08-27T04:54:10.852Z,100476.59
2022-08-27T04:56:38.490Z,100476.03
2022-08-27T04:59:08.712Z,100477.66
2022-08-27T05:01:37.093Z,100479.56
2022-08-27T05:04:04.302Z,100475.69
2022-08-27T05:06:31.261Z,100481.72
2022-08-27T05:08:57.802Z,100486.00
2022-08-27T05:11:27.194Z,100483.25
2022-08-27T05:13:54.232Z,100486.94
2022-08-27T05:16:22.987Z,100486.81
2022-08-27T05:18:51.754Z,100487.66
2022-08-27T05:21:24.757Z,100479.69
2022-08-27T05:23:52.868Z,100481.41
2022-08-27T05:26:19.873Z,100487.69
2022-08-27T05:28:46.756Z,100483.63
2022-08-27T05:31:14.914Z,100493.00
2022-08-27T05:33:42.919Z,100483.97
2022-08-27T05:36:20.495Z,100489.38
2022-08-27T05:38:49.351Z,100493.06
2022-08-27T05:41:19.217Z,100494.59
2022-08-27T05:43:50.222Z,100487.16
2022-08-27T05:46:19.124Z,100485.31
2022-08-27T05:48:46.061Z,100490.69
2022-08-27T05:51:19.754Z,100487.88
2022-08-27T05:53:55.334Z,100484.63
2022-08-27T05:56:24.588Z,100482.44
2022-08-27T05:59:09.703Z,100484.81
2022-08-27T06:01:40.891Z,100480.56
2022-08-27T06:04:09.341Z,100482.47
2022-08-27T06:06:38.810Z,100484.97
2022-08-27T06:09:06.128Z,100489.00
2022-08-27T06:11:33.177Z,100483.06
2022-08-27T06:13:59.688Z,100482.09
2022-08-27T06:16:26.240Z,100491.03
2022-08-27T06:18:53.052Z,100483.94
2022-08-27T06:21:24.390Z,100483.41
2022-08-27T06:23:52.322Z,100488.13
2022-08-27T06:26:21.349Z,100490.72
2022-08-27T06:28:47.930Z,100498.84
2022-08-27T06:31:18.434Z,100496.47
2022-08-27T06:33:46.714Z,100491.91
2022-08-27T06:36:17.317Z,100492.69
2022-08-27T06:38:44.066Z,100498.56
2022-08-27T06:41:16.201Z,100499.69
2022-08-27T06:43:50.297Z,100495.28
2022-08-27T06:46:19.032Z,100502.50
2022-08-27T06:48:46.896Z,100503.03
2022-08-27T06:51:17.117Z,100498.78
2022-08-27T06:53:47.050Z,100508.09
2022-08-27T06:56:16.096Z,100501.53
2022-08-27T06:58:43.776Z,100501.97
2022-08-27T07:01:19.257Z,100515.66
2022-08-27T07:03:46.600Z,100522.97
2022-08-27T07:06:16.625Z,100526.94
2022-08-27T07:08:43.840Z,100521.13
2022-08-27T07:11:20.192Z,100522.00
2022-08-27T07:13:48.099Z,100525.50
2022-08-27T07:16:17.802Z,100528.50
2022-08-27T07:18:44.557Z,100525.50
2022-08-27T07:21:11.931Z,100534.34
2022-08-27T07:23:39.672Z,100527.78
2022-08-27T07:26:10.897Z,100529.25
2022-08-27T07:28:38.594Z,100538.00
2022-08-27T07:31:06.480Z,100532.03
2022-08-27T07:33:33.112Z,100542.06
2022-08-27T07:35:59.651Z,100540.22
2022-08-27T07:38:26.185Z,100537.59
2022-08-27T07:40:52.912Z,100531.06
2022-08-27T07:43:38.136Z,100533.59
2022-08-27T07:46:05.459Z,100532.25
2022-08-27T07:48:34.539Z,100542.41
2022-08-27T07:51:05.220Z,100532.97
2022-08-27T07:53:32.916Z,100536.31
2022-08-27T07:56:04.749Z,100540.38
2022-08-27T07:58:31.859Z,100536.69
2022-08-27T08:00:59.424Z,100547.91
2022-08-27T08:03:27.010Z,100552.63
2022-08-27T08:05:54.023Z,100544.94
2022-08-27T08:08:21.302Z,100554.72
2022-08-27T08:10:49.178Z,100553.72
2022-08-27T08:13:19.389Z,100561.69
2022-08-27T08:15:47.105Z,100557.59
2022-08-27T08:18:14.327Z,100560.56
2022-08-27T08:20:57.584Z,100560.31
2022-08-27T08:23:24.445Z,100562.00
2022-08-27T08:25:50.941Z,100556.91
2022-08-27T08:28:17.547Z,100562.19
2022-08-27T08:30:44.309Z,100566.72
2022-08-27T08:33:13.427Z,100569.47
2022-08-27T08:35:41.314Z,100562.34
2022-08-27T08:38:08.916Z,100572.13
2022-08-27T08:40:49.684Z,100571.81
2022-08-27T08:43:36.516Z,100567.06
2022-08-27T08:46:12.829Z,100576.03
2022-08-27T08:48:47.137Z,100578.25
2022-08-27T08:51:22.532Z,100573.81
2022-08-27T08:54:13.746Z,100575.19
2022-08-27T08:56:54.777Z,100570.56
2022-08-27T08:59:40.251Z,100573.38
2022-08-27T09:02:13.243Z,100572.38
2022-08-27T09:04:42.098Z,100577.19
2022-08-27T09:07:17.688Z,100583.28
2022-08-27T09:09:47.216Z,100571.78
2022-08-27T09:12:22.279Z,100573.78
2022-08-27T09:14:56.420Z,100577.72
2022-08-27T09:17:24.119Z,100586.16
2022-08-27T09:19:52.561Z,100589.00
2022-08-27T09:22:43.959Z,100580.97
2022-08-27T09:25:20.928Z,100583.06
2022-08-27T09:27:49.521Z,100588.63
2022-08-27T09:30:28.713Z,100582.97
2022-08-27T09:33:01.788Z,100586.34
2022-08-27T09:35:34.565Z,100579.19
2022-08-27T09:38:02.408Z,100575.53
2022-08-27T09:40:40.035Z,100579.94
2022-08-27T09:43:15.629Z,100576.88
2022-08-27T09:45:48.976Z,100581.50
2022-08-27T09:48:20.071Z,100578.03
2022-08-27T09:50:50.897Z,100577.75
2022-08-27T09:53:19.756Z,100582.44
2022-08-27T09:56:07.907Z,100576.00
2022-08-27T09:58:44.750Z,100575.44
2022-08-27T10:01:21.552Z,100580.22
2022-08-27T10:03:49.519Z,100574.41
2022-08-27T10:06:28.147Z,100572.13
2022-08-27T10:09:01.945Z,100575.44
2022-08-27T10:11:50.398Z,100579.16
2022-08-27T10:14:31.094Z,100579.81
2022-08-27T10:17:02.321Z,100577.91
2022-08-27T10:19:41.204Z,100581.91
2022-08-27T10:22:31.401Z,100585.63
2022-08-27T10:25:05.923Z,100580.75
2022-08-27T10:27:38.312Z,100582.59
2022-08-27T10:30:10.334Z,100582.22
2022-08-27T10:32:43.777Z,100593.00
2022-08-27T10:35:25.364Z,100587.19
2022-08-27T10:38:14.162Z,100593.47
2022-08-27T10:41:04.588Z,100600.22
2022-08-27T10:43:44.273Z,100593.81
2022-08-27T10:46:49.840Z,100593.59
2022-08-27T10:49:45.978Z,100595.06
2022-08-27T10:52:51.686Z,100594.69
2022-08-27T10:55:31.003Z,100598.69
2022-08-27T10:58:28.877Z,100596.50
2022-08-27T11:01:14.157Z,100591.41
2022-08-27T11:03:45.990Z,100603.25
2022-08-27T11:06:38.773Z,100596.81
2022-08-27T11:09:23.037Z,100604.28
2022-08-27T11:15:07.917Z,100595.78
2022-08-27T11:17:55.137Z,100598.28
2022-08-27T11:20:24.656Z,100603.94
2022-08-27T11:23:11.167Z,100602.56
2022-08-27T11:26:02.155Z,100604.66
2022-08-27T11:28:53.837Z,100614.31
2022-08-27T11:31:40.598Z,100620.34
2022-08-27T11:34:27.089Z,100616.75
2022-08-27T11:37:13.643Z,100616.75
2022-08-27T11:40:07.685Z,100624.19
2022-08-27T11:42:39.592Z,100613.56
2022-08-27T11:45:15.348Z,100615.19
2022-08-27T11:47:55.759Z,100614.97
2022-08-27T11:50:24.781Z,100626.53
2022-08-27T11:52:59.334Z,100622.31
2022-08-27T11:55:32.859Z,100631.25
2022-08-27T11:58:07.904Z,100621.09
2022-08-27T12:00:40.861Z,100624.50
2022-08-27T12:03:29.956Z,100619.19
2022-08-27T12:05:56.454Z,100616.97
2022-08-27T12:08:22.871Z,100618.06
2022-08-27T12:11:48.748Z,100615.03
2022-08-27T12:14:49.755Z,100617.22
2022-08-27T12:17:45.490Z,100616.84
2022-08-27T12:20:39.776Z,100626.25
2022-08-27T12:23:42.306Z,100617.78
2022-08-27T12:26:34.778Z,100625.50
2022-08-27T12:29:43.835Z,100617.28
2022-08-27T12:32:19.701Z,100611.59
2022-08-27T12:35:05.318Z,100614.91
2022-08-27T12:37:37.676Z,100618.56
2022-08-27T12:40:16.939Z,100620.44
2022-08-27T12:42:47.203Z,100617.03
2022-08-27T12:45:24.328Z,100621.09
2022-08-27T12:47:53.624Z,100618.00
2022-08-27T12:50:31.006Z,100615.88
2022-08-27T12:53:23.561Z,100614.44
2022-08-27T12:56:15.634Z,100613.50
2022-08-27T12:59:05.976Z,100612.63
2022-08-27T13:01:55.551Z,100603.69
2022-08-27T13:04:30.430Z,100599.28
2022-08-27T13:06:58.113Z,100604.97
2022-08-27T13:09:30.730Z,100605.28
2022-08-27T13:11:59.437Z,100600.66
2022-08-27T13:14:28.350Z,100597.41
2022-08-27T13:16:57.398Z,100607.09
2022-08-27T13:19:33.470Z,100603.88
2022-08-27T13:22:01.494Z,100607.19
2022-08-27T13:24:30.609Z,100600.28
2022-08-27T13:26:57.836Z,100597.97
2022-08-27T13:29:26.664Z,100603.13
2022-08-27T13:31:53.707Z,100601.59
2022-08-27T13:34:24.041Z,100602.84
2022-08-27T13:37:05.841Z,100607.28
2022-08-27T13:39:37.834Z,100602.03
2022-08-27T13:42:07.340Z,100605.09
2022-08-27T13:44:37.283Z,100606.81
2022-08-27T13:47:19.778Z,100598.97
2022-08-27T13:49:46.528Z,100595.94
2022-08-27T13:52:15.740Z,100598.25
2022-08-27T13:54:57.759Z,100595.94
2022-08-27T13:57:28.287Z,100603.88
2022-08-27T13:59:54.833Z,100593.13
2022-08-27T14:02:28.453Z,100605.13
2022-08-27T14:05:12.267Z,100597.75
2022-08-27T14:07:47.494Z,100597.94
2022-08-27T14:10:40.805Z,100600.81
2022-08-27T14:13:28.789Z,100594.47
2022-08-27T14:15:58.280Z,100604.72
2022-08-27T14:18:57.219Z,100598.75
2022-08-27T14:21:18.968Z,100601.78
2022-08-27T14:23:45.497Z,100604.72
2022-08-27T14:26:13.386Z,100603.47
2022-08-27T14:28:39.990Z,100596.66
2022-08-27T14:31:06.584Z,100600.53
2022-08-27T14:33:33.105Z,100591.59
2022-08-27T14:35:59.730Z,100598.25
2022-08-27T14:38:31.589Z,100595.75
2022-08-27T14:40:58.546Z,100602.94
2022-08-27T14:43:25.803Z,100601.22
2022-08-27T14:45:52.864Z,100604.19
2022-08-27T14:48:30.443Z,100604.13
2022-08-27T14:50:57.195Z,100595.41
2022-08-27T14:53:24.408Z,100596.63
2022-08-27T14:55:52.217Z,100600.00
2022-08-27T14:58:19.305Z,100598.75
2022-08-27T15:00:45.977Z,100603.41
2022-08-27T15:03:13.032Z,100597.72
2022-08-27T15:05:39.872Z,100596.81
2022-08-27T15:08:07.570Z,100601.50
2022-08-27T15:10:40.268Z,100600.19
2022-08-27T15:13:06.904Z,100601.66
2022-08-27T15:15:33.513Z,100599.16
2022-08-27T15:18:00.029Z,100601.91
2022-08-27T15:20:26.537Z,100601.50
2022-08-27T15:22:53.141Z,100596.94
2022-08-27T15:25:20.726Z,100597.97
2022-08-27T15:27:47.503Z,100608.53
2022-08-27T15:30:16.588Z,100607.97
2022-08-27T15:32:46.854Z,100602.59
2022-08-27T15:35:23.116Z,100601.22
2022-08-27T15:37:49.810Z,100599.94
2022-08-27T15:40:18.426Z,100603.69
2022-08-27T15:42:48.018Z,100608.16
2022-08-27T15:45:15.725Z,100605.91
2022-08-27T15:47:42.340Z,100609.06
2022-08-27T15:50:09.183Z,100605.56
2022-08-27T15:52:41.305Z,100605.13
2022-08-27T15:55:18.828Z,100604.84
2022-08-27T15:57:45.321Z,100608.44
2022-08-27T16:00:12.411Z,100604.28
2022-08-27T16:02:40.230Z,100604.78
2022-08-27T16:05:07.352Z,100610.84
2022-08-27T16:07:33.794Z,100608.22
2022-08-27T16:10:00.251Z,100600.47
2022-08-27T16:12:27.386Z,100608.47
2022-08-27T16:14:55.098Z,100609.56
2022-08-27T16:17:22.195Z,100609.63
2022-08-27T16:19:49.354Z,100602.03
2022-08-27T16:22:16.257Z,100609.31
2022-08-27T16:24:42.913Z,100601.47
2022-08-27T16:27:09.829Z,100603.00
2022-08-27T16:29:36.744Z,100599.69
2022-08-27T16:32:04.429Z,100608.13
2022-08-27T16:34:32.041Z,100602.03
2022-08-27T16:36:58.489Z,100604.72
2022-08-27T16:39:26.512Z,100608.88
2022-08-27T16:41:58.649Z,100614.69
2022-08-27T16:44:26.253Z,100614.69
2022-08-27T16:46:53.439Z,100605.25
2022-08-27T16:49:38.437Z,100606.69
2022-08-27T16:52:06.771Z,100611.91
2022-08-27T16:54:34.744Z,100616.91
2022-08-27T16:57:01.580Z,100613.31
2022-08-27T16:59:28.061Z,100626.69
2022-08-27T17:01:55.313Z,100622.22
2022-08-27T17:04:30.319Z,100623.00
2022-08-27T17:06:58.967Z,100628.25
2022-08-27T17:09:25.982Z,100623.19
2022-08-27T17:11:57.025Z,100620.34
2022-08-27T17:14:24.085Z,100623.72
2022-08-27T17:16:53.744Z,100627.56
2022-08-27T17:19:22.280Z,100624.75
2022-08-27T17:21:49.587Z,100624.22
2022-08-27T17:24:16.549Z,100628.25
2022-08-27T17:26:43.092Z,100635.09
2022-08-27T17:29:09.525Z,100631.53
2022-08-27T17:31:38.395Z,100630.28
2022-08-27T17:34:06.817Z,100631.63
2022-08-27T17:36:33.749Z,100630.19
2022-08-27T17:39:02.798Z,100637.25
2022-08-27T17:41:40.268Z,100641.16
2022-08-27T17:44:16.858Z,100641.09
2022-08-27T17:46:43.363Z,100645.19
2022-08-27T17:49:09.848Z,100648.38
2022-08-27T17:51:36.420Z,100652.16
2022-08-27T17:54:05.844Z,100656.22
2022-08-27T17:56:32.394Z,100654.56
2022-08-27T17:58:58.882Z,100655.22
2022-08-27T18:01:31.446Z,100658.63
2022-08-27T18:03:59.208Z,100657.66
2022-08-27T18:06:27.324Z,100667.09
2022-08-27T18:08:54.035Z,100662.81
2022-08-27T18:11:20.858Z,100658.75
2022-08-27T18:13:52.554Z,100661.78
2022-08-27T18:16:19.704Z,100664.25
2022-08-27T18:18:46.726Z,100667.28
2022-08-27T18:21:13.702Z,100669.28
2022-08-27T18:23:50.638Z,100669.16
2022-08-27T18:26:20.300Z,100672.09
2022-08-27T18:28:47.717Z,100668.09
2022-08-27T18:31:17.250Z,100674.00
2022-08-27T18:33:43.862Z,100680.41
2022-08-27T18:36:10.459Z,100685.22
2022-08-27T18:38:36.976Z,100695.59
2022-08-27T18:41:03.554Z,100690.97
2022-08-27T18:43:34.512Z,100690.28
2022-08-27T18:46:03.103Z,100693.34
2022-08-27T18:48:29.993Z,100690.63
2022-08-27T18:50:59.307Z,100692.28
2022-08-27T18:53:28.451Z,100689.00
2022-08-27T18:55:55.546Z,100689.06
2022-08-27T18:58:22.809Z,100691.22
2022-08-27T19:00:53.750Z,100692.88
2022-08-27T19:03:27.856Z,100694.44
2022-08-27T19:05:56.236Z,100699.50
2022-08-27T19:08:23.650Z,100695.78
2022-08-27T19:10:50.766Z,100708.50
2022-08-27T19:13:17.486Z,100701.91
2022-08-27T19:15:50.833Z,100710.88
2022-08-27T19:18:18.307Z,100712.72
2022-08-27T19:20:44.850Z,100707.66
2022-08-27T19:23:11.383Z,100709.53
2022-08-27T19:25:37.893Z,100710.06
2022-08-27T19:28:04.522Z,100716.88
2022-08-27T19:30:31.695Z,100722.59
2022-08-27T19:32:58.463Z,100725.47
2022-08-27T19:35:25.241Z,100719.56
2022-08-27T19:37:53.186Z,100720.06
2022-08-27T19:40:21.936Z,100727.19
2022-08-27T19:42:49.251Z,100722.44
2022-08-27T19:45:15.771Z,100728.03
2022-08-27T19:47:50.382Z,100728.34
2022-08-27T19:50:17.698Z,100725.81
2022-08-27T19:52:44.215Z,100726.34
2022-08-27T19:55:13.984Z,100724.25
2022-08-27T19:57:41.858Z,100725.56
2022-08-27T20:00:11.312Z,100718.72
2022-08-27T20:02:37.897Z,100725.66
2022-08-27T20:05:21.822Z,100728.69
2022-08-27T20:07:51.044Z,100736.81
2022-08-27T20:10:19.874Z,100727.38
2022-08-27T20:12:48.753Z,100726.31
2022-08-27T20:15:15.643Z,100726.16
2022-08-27T20:17:43.018Z,100730.63
2022-08-27T20:20:10.785Z,100741.81
2022-08-27T20:22:37.464Z,100738.44
2022-08-27T20:25:04.301Z,100732.91
2022-08-27T20:27:30.767Z,100731.03
2022-08-27T20:29:57.378Z,100737.81
2022-08-27T20:32:29.253Z,100746.06
2022-08-27T20:34:57.162Z,100737.53
2022-08-27T20:37:24.339Z,100752.19
2022-08-27T20:39:52.378Z,100748.88
2022-08-27T20:42:19.894Z,100750.66
2022-08-27T20:44:46.910Z,100759.13
2022-08-27T20:47:16.263Z,100761.97
2022-08-27T20:49:44.553Z,100752.56
2022-08-27T20:52:12.843Z,100754.03
2022-08-27T20:54:39.683Z,100754.56
2022-08-27T20:57:08.059Z,100761.69
2022-08-27T20:59:53.133Z,100758.81
2022-08-27T21:02:25.355Z,100762.38
2022-08-27T21:04:52.917Z,100762.88
2022-08-27T21:07:20.700Z,100763.88
2022-08-27T21:09:56.130Z,100762.72
2022-08-27T21:12:29.063Z,100772.88
2022-08-27T21:14:57.853Z,100763.25
2022-08-27T21:17:26.964Z,100774.22
2022-08-27T21:19:54.193Z,100773.88
2022-08-27T21:22:21.892Z,100771.50
2022-08-27T21:24:48.558Z,100776.03
2022-08-27T21:27:17.172Z,100780.47
2022-08-27T21:29:46.766Z,100777.44
2022-08-27T21:32:14.241Z,100788.75
2022-08-27T21:34:41.830Z,100773.47
2022-08-27T21:37:08.784Z,100777.72
2022-08-27T21:39:38.227Z,100778.34
2022-08-27T21:42:04.889Z,100783.59
2022-08-27T21:44:31.406Z,100787.31
2022-08-27T21:46:58.393Z,100786.75
2022-08-27T21:49:24.978Z,100789.16
2022-08-27T21:51:51.804Z,100788.44
2022-08-27T21:54:18.308Z,100793.81
2022-08-27T21:56:45.451Z,100789.53
2022-08-27T21:59:11.965Z,100796.34
2022-08-27T22:01:39.234Z,100789.75
2022-08-27T22:04:05.828Z,100786.66
2022-08-27T22:06:32.298Z,100800.94
2022-08-27T22:08:58.811Z,100801.09
2022-08-27T22:11:25.668Z,100804.84
2022-08-27T22:13:53.039Z,100805.84
2022-08-27T22:16:19.577Z,100812.66
2022-08-27T22:18:46.220Z,100802.97
2022-08-27T22:21:13.488Z,100801.56
2022-08-27T22:23:43.191Z,100805.56
2022-08-27T22:26:11.872Z,100803.53
2022-08-27T22:28:38.341Z,100805.81
2022-08-27T22:31:07.129Z,100801.75
2022-08-27T22:33:34.118Z,100804.13
2022-08-27T22:36:00.624Z,100797.84
2022-08-27T22:38:27.102Z,100803.38
2022-08-27T22:40:53.562Z,100804.03
2022-08-27T22:43:20.063Z,100804.72
2022-08-27T22:45:46.603Z,100797.97
2022-08-27T22:48:13.292Z,100806.13
2022-08-27T22:50:40.075Z,100807.88
2022-08-27T22:53:06.967Z,100812.19
2022-08-27T22:55:33.536Z,100813.91
2022-08-27T22:58:02.012Z,100812.19
2022-08-27T23:00:34.599Z,100820.44
2022-08-27T23:03:05.383Z,100821.22
2022-08-27T23:05:41.723Z,100814.09
2022-08-27T23:08:10.877Z,100817.66
2022-08-27T23:10:37.764Z,100814.75
2022-08-27T23:13:05.516Z,100823.94
2022-08-27T23:17:58.836Z,100818.75
2022-08-27T23:20:25.975Z,100812.75
2022-08-27T23:22:53.837Z,100819.84
2022-08-27T23:25:43.221Z,100816.66
2022-08-27T23:28:14.288Z,100811.63
2022-08-27T23:30:42.668Z,100816.13
2022-08-27T23:33:09.631Z,100810.91
2022-08-27T23:35:36.778Z,100818.81
2022-08-27T23:38:03.761Z,100811.34
2022-08-27T23:40:30.322Z,100821.09
2022-08-27T23:42:56.891Z,100824.22
2022-08-27T23:45:25.907Z,100817.00
2022-08-27T23:47:52.941Z,100822.09
2022-08-27T23:50:20.381Z,100823.38
2022-08-27T23:52:48.314Z,100826.19
2022-08-27T23:55:15.007Z,100832.44
2022-08-27T23:57:41.533Z,100822.22
